FFT4524 KAUS-KMCO
Flight info
| Callsign | FFT4524 |
|---|---|
| Flight time | 2h 11m |
| Altitude | 37000 |
| Route | ILEXY4 ZENZI IAH J86 LEV Y280 CHRGE PRICY5 |
| Aircraft | A320/M-SDE3FGHIRWY/LB1 |
Departure
| Time | 2026-05-06 18:24 |
|---|---|
| Airport | Austin Bergstrom International Airport (KAUS) |
Arrival
| Time | 2026-05-06 20:36 |
|---|---|
| Airport | Orlando International Airport (KMCO) |
| Time | Latitude | Longitude | Altitude | Speed | Heading |
|---|---|---|---|---|---|
| 2026-05-06 17:59 | 30.20192 | -97.67143 | 527 ft | 0 kts | 104° |
| 2026-05-06 18:11 | 30.20194 | -97.67151 | 527 ft | 2 kts | 104° |
| 2026-05-06 18:11 | 30.20199 | -97.67172 | 527 ft | 2 kts | 104° |
| 2026-05-06 18:11 | 30.20204 | -97.67193 | 527 ft | 3 kts | 125° |
| 2026-05-06 18:12 | 30.20218 | -97.67208 | 527 ft | 3 kts | 160° |
| 2026-05-06 18:12 | 30.20234 | -97.67212 | 527 ft | 1 kts | 178° |
| 2026-05-06 18:12 | 30.20237 | -97.67212 | 527 ft | 0 kts | 179° |
| 2026-05-06 18:16 | 30.20234 | -97.67212 | 527 ft | 3 kts | 179° |
| 2026-05-06 18:16 | 30.20167 | -97.67211 | 527 ft | 16 kts | 178° |
| 2026-05-06 18:16 | 30.20053 | -97.67270 | 527 ft | 23 kts | 216° |
| 2026-05-06 18:17 | 30.19883 | -97.67337 | 527 ft | 29 kts | 177° |
| 2026-05-06 18:17 | 30.19829 | -97.67172 | 527 ft | 28 kts | 88° |
| 2026-05-06 18:17 | 30.19872 | -97.66977 | 527 ft | 22 kts | 53° |
| 2026-05-06 18:17 | 30.19906 | -97.66810 | 527 ft | 22 kts | 90° |
| 2026-05-06 18:18 | 30.19907 | -97.66629 | 527 ft | 23 kts | 89° |
| 2026-05-06 18:18 | 30.19911 | -97.66446 | 527 ft | 23 kts | 88° |
| 2026-05-06 18:18 | 30.19915 | -97.66262 | 527 ft | 23 kts | 88° |
| 2026-05-06 18:18 | 30.19919 | -97.66076 | 527 ft | 23 kts | 89° |
| 2026-05-06 18:19 | 30.19846 | -97.65988 | 527 ft | 17 kts | 179° |
| 2026-05-06 18:19 | 30.19737 | -97.65984 | 527 ft | 15 kts | 178° |
| 2026-05-06 18:19 | 30.19639 | -97.65982 | 527 ft | 13 kts | 179° |
| 2026-05-06 18:19 | 30.19551 | -97.65980 | 527 ft | 12 kts | 179° |
| 2026-05-06 18:20 | 30.19456 | -97.65978 | 527 ft | 16 kts | 179° |
| 2026-05-06 18:20 | 30.19326 | -97.65972 | 528 ft | 21 kts | 179° |
| 2026-05-06 18:20 | 30.19161 | -97.65969 | 528 ft | 26 kts | 178° |
| 2026-05-06 18:20 | 30.18961 | -97.65964 | 528 ft | 31 kts | 178° |
| 2026-05-06 18:21 | 30.18730 | -97.65958 | 527 ft | 36 kts | 178° |
| 2026-05-06 18:21 | 30.18465 | -97.65951 | 527 ft | 40 kts | 179° |
| 2026-05-06 18:21 | 30.18178 | -97.65943 | 527 ft | 42 kts | 178° |
| 2026-05-06 18:21 | 30.17967 | -97.65941 | 527 ft | 24 kts | 176° |
| 2026-05-06 18:22 | 30.17917 | -97.65829 | 528 ft | 7 kts | 89° |
| 2026-05-06 18:22 | 30.17917 | -97.65828 | 528 ft | 0 kts | 89° |
| 2026-05-06 18:22 | 30.17917 | -97.65827 | 528 ft | 1 kts | 89° |
| 2026-05-06 18:23 | 30.17919 | -97.65772 | 528 ft | 11 kts | 88° |
| 2026-05-06 18:23 | 30.17975 | -97.65728 | 526 ft | 11 kts | 358° |
| 2026-05-06 18:23 | 30.17992 | -97.65729 | 526 ft | 7 kts | 358° |
| 2026-05-06 18:23 | 30.18196 | -97.65732 | 526 ft | 62 kts | 360° |
| 2026-05-06 18:24 | 30.18851 | -97.65749 | 529 ft | 123 kts | 359° |
| 2026-05-06 18:24 | 30.19873 | -97.65774 | 589 ft | 164 kts | 5° |
| 2026-05-06 18:24 | 30.21028 | -97.65799 | 1148 ft | 168 kts | 2° |
| 2026-05-06 18:24 | 30.22181 | -97.65784 | 1905 ft | 164 kts | 4° |
| 2026-05-06 18:25 | 30.23353 | -97.65745 | 2422 ft | 177 kts | 3° |
| 2026-05-06 18:25 | 30.24663 | -97.65690 | 2690 ft | 200 kts | 3° |
| 2026-05-06 18:25 | 30.26141 | -97.65616 | 2929 ft | 225 kts | 2° |
| 2026-05-06 18:25 | 30.27789 | -97.65523 | 3304 ft | 249 kts | 3° |
| 2026-05-06 18:26 | 30.29598 | -97.65411 | 3729 ft | 271 kts | 3° |
| 2026-05-06 18:26 | 30.31522 | -97.65289 | 3975 ft | 280 kts | 3° |
| 2026-05-06 18:26 | 30.33475 | -97.65166 | 4016 ft | 281 kts | 3° |
| 2026-05-06 18:26 | 30.35421 | -97.65044 | 4018 ft | 280 kts | 3° |
| 2026-05-06 18:27 | 30.37374 | -97.64924 | 4019 ft | 281 kts | 2° |
| 2026-05-06 18:27 | 30.39324 | -97.64799 | 4018 ft | 280 kts | 3° |
| 2026-05-06 18:27 | 30.41274 | -97.64671 | 4034 ft | 281 kts | 3° |
| 2026-05-06 18:27 | 30.43215 | -97.64545 | 4025 ft | 279 kts | 3° |
| 2026-05-06 18:28 | 30.45167 | -97.64422 | 4027 ft | 281 kts | 2° |
| 2026-05-06 18:28 | 30.47097 | -97.64304 | 4030 ft | 280 kts | 2° |
| 2026-05-06 18:28 | 30.49074 | -97.64184 | 4029 ft | 282 kts | 3° |
| 2026-05-06 18:28 | 30.51005 | -97.64064 | 4069 ft | 282 kts | 3° |
| 2026-05-06 18:29 | 30.52976 | -97.63913 | 4841 ft | 287 kts | 8° |
| 2026-05-06 18:29 | 30.54868 | -97.63148 | 5627 ft | 292 kts | 33° |
| 2026-05-06 18:29 | 30.56342 | -97.61538 | 6400 ft | 296 kts | 58° |
| 2026-05-06 18:29 | 30.57112 | -97.59332 | 7091 ft | 297 kts | 84° |
| 2026-05-06 18:30 | 30.57017 | -97.56958 | 7784 ft | 297 kts | 110° |
| 2026-05-06 18:30 | 30.56180 | -97.54775 | 8484 ft | 298 kts | 121° |
| 2026-05-06 18:30 | 30.55213 | -97.52621 | 9160 ft | 304 kts | 122° |
| 2026-05-06 18:30 | 30.54225 | -97.50423 | 9826 ft | 310 kts | 121° |
| 2026-05-06 18:31 | 30.53214 | -97.48170 | 10288 ft | 324 kts | 122° |
| 2026-05-06 18:31 | 30.52140 | -97.45775 | 10458 ft | 346 kts | 122° |
| 2026-05-06 18:31 | 30.51017 | -97.43260 | 10923 ft | 356 kts | 122° |
| 2026-05-06 18:31 | 30.49871 | -97.40676 | 11546 ft | 361 kts | 122° |
| 2026-05-06 18:32 | 30.48723 | -97.38079 | 12210 ft | 364 kts | 122° |
| 2026-05-06 18:32 | 30.47562 | -97.35450 | 12865 ft | 368 kts | 123° |
| 2026-05-06 18:32 | 30.46386 | -97.32796 | 13527 ft | 371 kts | 123° |
| 2026-05-06 18:32 | 30.45198 | -97.30125 | 14118 ft | 375 kts | 123° |
| 2026-05-06 18:33 | 30.43995 | -97.27427 | 14655 ft | 378 kts | 124° |
| 2026-05-06 18:33 | 30.42778 | -97.24708 | 15231 ft | 382 kts | 124° |
| 2026-05-06 18:33 | 30.41550 | -97.21966 | 15792 ft | 385 kts | 124° |
| 2026-05-06 18:33 | 30.40311 | -97.19201 | 16370 ft | 388 kts | 124° |
| 2026-05-06 18:34 | 30.39066 | -97.16426 | 16947 ft | 392 kts | 125° |
| 2026-05-06 18:34 | 30.37796 | -97.13596 | 17478 ft | 396 kts | 125° |
| 2026-05-06 18:34 | 30.36527 | -97.10743 | 18035 ft | 401 kts | 123° |
| 2026-05-06 18:34 | 30.35539 | -97.07666 | 18529 ft | 415 kts | 111° |
| 2026-05-06 18:35 | 30.35053 | -97.04331 | 19002 ft | 427 kts | 99° |
| 2026-05-06 18:35 | 30.34859 | -97.00883 | 19481 ft | 431 kts | 99° |
| 2026-05-06 18:35 | 30.34659 | -96.97396 | 19955 ft | 435 kts | 99° |
| 2026-05-06 18:35 | 30.34451 | -96.93881 | 20441 ft | 439 kts | 99° |
| 2026-05-06 18:36 | 30.34241 | -96.90391 | 20918 ft | 443 kts | 99° |
| 2026-05-06 18:36 | 30.34024 | -96.86820 | 21392 ft | 447 kts | 99° |
| 2026-05-06 18:36 | 30.33807 | -96.83207 | 21850 ft | 451 kts | 99° |
| 2026-05-06 18:36 | 30.33589 | -96.79570 | 22326 ft | 455 kts | 99° |
| 2026-05-06 18:37 | 30.33366 | -96.75900 | 22799 ft | 459 kts | 99° |
| 2026-05-06 18:37 | 30.33211 | -96.73400 | 23125 ft | 462 kts | 99° |
| 2026-05-06 18:37 | 30.32904 | -96.68461 | 23715 ft | 468 kts | 99° |
| 2026-05-06 18:37 | 30.32669 | -96.64692 | 24157 ft | 472 kts | 99° |
| 2026-05-06 18:38 | 30.32429 | -96.60893 | 24548 ft | 475 kts | 99° |
| 2026-05-06 18:38 | 30.32187 | -96.57070 | 24890 ft | 478 kts | 99° |
| 2026-05-06 18:38 | 30.31943 | -96.53208 | 25164 ft | 482 kts | 99° |
| 2026-05-06 18:38 | 30.31697 | -96.49339 | 25529 ft | 485 kts | 99° |
| 2026-05-06 18:39 | 30.31447 | -96.45433 | 25869 ft | 488 kts | 99° |
| 2026-05-06 18:39 | 30.31195 | -96.41509 | 26209 ft | 491 kts | 99° |
| 2026-05-06 18:39 | 30.30941 | -96.37561 | 26525 ft | 494 kts | 99° |
| 2026-05-06 18:40 | 30.30423 | -96.29575 | 27171 ft | 499 kts | 99° |
| 2026-05-06 18:40 | 30.30159 | -96.25570 | 27485 ft | 502 kts | 99° |
| 2026-05-06 18:40 | 30.29892 | -96.21567 | 27767 ft | 505 kts | 99° |
| 2026-05-06 18:40 | 30.29622 | -96.17509 | 28047 ft | 508 kts | 99° |
| 2026-05-06 18:41 | 30.29348 | -96.13420 | 28318 ft | 511 kts | 100° |
| 2026-05-06 18:41 | 30.28979 | -96.09331 | 28613 ft | 509 kts | 106° |
| 2026-05-06 18:41 | 30.28164 | -96.05374 | 28913 ft | 504 kts | 115° |
| 2026-05-06 18:41 | 30.26891 | -96.01631 | 29206 ft | 497 kts | 124° |
| 2026-05-06 18:42 | 30.25286 | -95.98091 | 29427 ft | 496 kts | 126° |
| 2026-05-06 18:42 | 30.23655 | -95.94571 | 29700 ft | 499 kts | 126° |
| 2026-05-06 18:42 | 30.22008 | -95.91024 | 29972 ft | 501 kts | 126° |
| 2026-05-06 18:42 | 30.20357 | -95.87467 | 30192 ft | 504 kts | 126° |
| 2026-05-06 18:43 | 30.18694 | -95.83886 | 30407 ft | 506 kts | 126° |
| 2026-05-06 18:43 | 30.17028 | -95.80299 | 30620 ft | 508 kts | 126° |
| 2026-05-06 18:43 | 30.15353 | -95.76694 | 30881 ft | 510 kts | 126° |
| 2026-05-06 18:43 | 30.13674 | -95.73076 | 31133 ft | 511 kts | 126° |
| 2026-05-06 18:44 | 30.11994 | -95.69456 | 31449 ft | 510 kts | 126° |
| 2026-05-06 18:44 | 30.10319 | -95.65850 | 31742 ft | 510 kts | 126° |
| 2026-05-06 18:44 | 30.08636 | -95.62234 | 32094 ft | 510 kts | 126° |
| 2026-05-06 18:44 | 30.06954 | -95.58629 | 32373 ft | 510 kts | 126° |
| 2026-05-06 18:45 | 30.05268 | -95.55022 | 32663 ft | 510 kts | 126° |
| 2026-05-06 18:45 | 30.03579 | -95.51417 | 32954 ft | 510 kts | 126° |
| 2026-05-06 18:45 | 30.01889 | -95.47809 | 33296 ft | 510 kts | 126° |
| 2026-05-06 18:45 | 30.00774 | -95.45428 | 33505 ft | 510 kts | 126° |
| 2026-05-06 18:46 | 29.98516 | -95.40607 | 33878 ft | 511 kts | 126° |
| 2026-05-06 18:46 | 29.96882 | -95.36959 | 34121 ft | 516 kts | 120° |
| 2026-05-06 18:46 | 29.95659 | -95.33035 | 34365 ft | 524 kts | 110° |
| 2026-05-06 18:46 | 29.94954 | -95.28953 | 34611 ft | 528 kts | 102° |
| 2026-05-06 18:47 | 29.94417 | -95.24717 | 34857 ft | 528 kts | 103° |
| 2026-05-06 18:47 | 29.93886 | -95.20539 | 35113 ft | 527 kts | 103° |
| 2026-05-06 18:47 | 29.93357 | -95.16408 | 35388 ft | 526 kts | 103° |
| 2026-05-06 18:47 | 29.92817 | -95.12227 | 35623 ft | 525 kts | 103° |
| 2026-05-06 18:48 | 29.92283 | -95.08124 | 35852 ft | 524 kts | 103° |
| 2026-05-06 18:48 | 29.91731 | -95.03911 | 36079 ft | 524 kts | 103° |
| 2026-05-06 18:48 | 29.91195 | -94.99823 | 36294 ft | 523 kts | 103° |
| 2026-05-06 18:48 | 29.90649 | -94.95683 | 36506 ft | 522 kts | 104° |
| 2026-05-06 18:49 | 29.90101 | -94.91550 | 36713 ft | 521 kts | 104° |
| 2026-05-06 18:49 | 29.89554 | -94.87416 | 36890 ft | 521 kts | 104° |
| 2026-05-06 18:49 | 29.89011 | -94.83289 | 36927 ft | 519 kts | 104° |
| 2026-05-06 18:50 | 29.87934 | -94.75127 | 36926 ft | 517 kts | 104° |
| 2026-05-06 18:50 | 29.86847 | -94.66942 | 36924 ft | 517 kts | 104° |
| 2026-05-06 18:51 | 29.85748 | -94.58758 | 36929 ft | 517 kts | 104° |
| 2026-05-06 18:51 | 29.84636 | -94.50580 | 36934 ft | 516 kts | 104° |
| 2026-05-06 18:52 | 29.83531 | -94.42411 | 36936 ft | 516 kts | 104° |
| 2026-05-06 18:52 | 29.82612 | -94.35616 | 36937 ft | 516 kts | 104° |
| 2026-05-06 18:53 | 29.81501 | -94.27452 | 36941 ft | 516 kts | 104° |
| 2026-05-06 18:53 | 29.80388 | -94.19284 | 36932 ft | 516 kts | 104° |
| 2026-05-06 18:54 | 29.79261 | -94.11123 | 36930 ft | 516 kts | 104° |
| 2026-05-06 18:54 | 29.78126 | -94.02951 | 36940 ft | 516 kts | 104° |
| 2026-05-06 18:55 | 29.76987 | -93.94798 | 36943 ft | 516 kts | 104° |
| 2026-05-06 18:55 | 29.75848 | -93.86646 | 36953 ft | 515 kts | 104° |
| 2026-05-06 18:56 | 29.74708 | -93.78514 | 36964 ft | 514 kts | 104° |
| 2026-05-06 18:56 | 29.73562 | -93.70396 | 36972 ft | 514 kts | 104° |
| 2026-05-06 18:57 | 29.72419 | -93.62289 | 36969 ft | 513 kts | 104° |
| 2026-05-06 18:57 | 29.71266 | -93.54182 | 36966 ft | 513 kts | 104° |
| 2026-05-06 18:58 | 29.70140 | -93.46326 | 36974 ft | 513 kts | 104° |
| 2026-05-06 18:58 | 29.68980 | -93.38232 | 36973 ft | 512 kts | 104° |
| 2026-05-06 18:59 | 29.67825 | -93.30209 | 36974 ft | 512 kts | 104° |
| 2026-05-06 18:59 | 29.66650 | -93.22127 | 36975 ft | 512 kts | 104° |
| 2026-05-06 19:00 | 29.65473 | -93.14049 | 36964 ft | 512 kts | 104° |
| 2026-05-06 19:00 | 29.64295 | -93.05973 | 36971 ft | 512 kts | 104° |
| 2026-05-06 19:01 | 29.63114 | -92.97906 | 36961 ft | 512 kts | 104° |
| 2026-05-06 19:01 | 29.61925 | -92.89838 | 36963 ft | 512 kts | 104° |
| 2026-05-06 19:02 | 29.60730 | -92.81781 | 36962 ft | 512 kts | 104° |
| 2026-05-06 19:02 | 29.59528 | -92.73718 | 36960 ft | 512 kts | 104° |
| 2026-05-06 19:03 | 29.58331 | -92.65669 | 36949 ft | 511 kts | 104° |
| 2026-05-06 19:03 | 29.57130 | -92.57609 | 36948 ft | 511 kts | 104° |
| 2026-05-06 19:04 | 29.55917 | -92.49557 | 36950 ft | 511 kts | 104° |
| 2026-05-06 19:04 | 29.54689 | -92.41509 | 36950 ft | 511 kts | 104° |
| 2026-05-06 19:05 | 29.53471 | -92.33511 | 36953 ft | 511 kts | 104° |
| 2026-05-06 19:05 | 29.52243 | -92.25418 | 36947 ft | 511 kts | 104° |
| 2026-05-06 19:06 | 29.51014 | -92.17375 | 36943 ft | 511 kts | 104° |
| 2026-05-06 19:06 | 29.49785 | -92.09405 | 36963 ft | 510 kts | 104° |
| 2026-05-06 19:07 | 29.48542 | -92.01384 | 36968 ft | 510 kts | 104° |
| 2026-05-06 19:07 | 29.47302 | -91.93371 | 36974 ft | 510 kts | 104° |
| 2026-05-06 19:08 | 29.46060 | -91.85360 | 36966 ft | 510 kts | 104° |
| 2026-05-06 19:08 | 29.44805 | -91.77354 | 36973 ft | 510 kts | 104° |
| 2026-05-06 19:09 | 29.43546 | -91.69349 | 36977 ft | 510 kts | 104° |
| 2026-05-06 19:09 | 29.42283 | -91.61331 | 36979 ft | 510 kts | 104° |
| 2026-05-06 19:10 | 29.41013 | -91.53340 | 36978 ft | 510 kts | 104° |
| 2026-05-06 19:10 | 29.39738 | -91.45335 | 36973 ft | 510 kts | 104° |
| 2026-05-06 19:11 | 29.38464 | -91.37327 | 36982 ft | 510 kts | 104° |
| 2026-05-06 19:11 | 29.37194 | -91.29380 | 36986 ft | 510 kts | 104° |
| 2026-05-06 19:12 | 29.35910 | -91.21379 | 36990 ft | 510 kts | 104° |
| 2026-05-06 19:12 | 29.34612 | -91.13380 | 36987 ft | 510 kts | 104° |
| 2026-05-06 19:13 | 29.33309 | -91.05380 | 36996 ft | 510 kts | 104° |
| 2026-05-06 19:13 | 29.32012 | -90.97376 | 36999 ft | 510 kts | 104° |
| 2026-05-06 19:14 | 29.30703 | -90.89382 | 37004 ft | 510 kts | 104° |
| 2026-05-06 19:14 | 29.29392 | -90.81393 | 37004 ft | 510 kts | 104° |
| 2026-05-06 19:15 | 29.28081 | -90.73410 | 36994 ft | 510 kts | 104° |
| 2026-05-06 19:15 | 29.26763 | -90.65431 | 37002 ft | 509 kts | 104° |
| 2026-05-06 19:16 | 29.25437 | -90.57461 | 37013 ft | 509 kts | 104° |
| 2026-05-06 19:16 | 29.24109 | -90.49494 | 37009 ft | 509 kts | 104° |
| 2026-05-06 19:17 | 29.22777 | -90.41553 | 37027 ft | 507 kts | 104° |
| 2026-05-06 19:17 | 29.21455 | -90.33680 | 37022 ft | 506 kts | 104° |
| 2026-05-06 19:18 | 29.20123 | -90.25773 | 37025 ft | 506 kts | 104° |
| 2026-05-06 19:18 | 29.18790 | -90.17874 | 37021 ft | 505 kts | 104° |
| 2026-05-06 19:19 | 29.17448 | -90.09994 | 37019 ft | 504 kts | 104° |
| 2026-05-06 19:19 | 29.15952 | -90.02160 | 37014 ft | 503 kts | 107° |
| 2026-05-06 19:20 | 29.14308 | -89.94382 | 37005 ft | 503 kts | 107° |
| 2026-05-06 19:20 | 29.12659 | -89.86605 | 37008 ft | 503 kts | 107° |
| 2026-05-06 19:21 | 29.11055 | -89.78823 | 37006 ft | 503 kts | 106° |
| 2026-05-06 19:21 | 29.09472 | -89.71035 | 37006 ft | 503 kts | 106° |
| 2026-05-06 19:22 | 29.07880 | -89.63245 | 37007 ft | 503 kts | 106° |
| 2026-05-06 19:22 | 29.06269 | -89.55475 | 37007 ft | 502 kts | 107° |
| 2026-05-06 19:23 | 29.04663 | -89.47756 | 37011 ft | 502 kts | 106° |
| 2026-05-06 19:23 | 29.03052 | -89.39990 | 37010 ft | 502 kts | 106° |
| 2026-05-06 19:24 | 29.01429 | -89.32226 | 37009 ft | 502 kts | 107° |
| 2026-05-06 19:24 | 28.99801 | -89.24466 | 37011 ft | 502 kts | 107° |
| 2026-05-06 19:25 | 28.98171 | -89.16696 | 37012 ft | 503 kts | 106° |
| 2026-05-06 19:25 | 28.96543 | -89.08927 | 37016 ft | 503 kts | 106° |
| 2026-05-06 19:26 | 28.94904 | -89.01162 | 37013 ft | 503 kts | 106° |
| 2026-05-06 19:26 | 28.93262 | -88.93415 | 37027 ft | 502 kts | 106° |
| 2026-05-06 19:27 | 28.91609 | -88.85674 | 37032 ft | 501 kts | 107° |
| 2026-05-06 19:27 | 28.89957 | -88.77950 | 37029 ft | 501 kts | 106° |
| 2026-05-06 19:28 | 28.88302 | -88.70225 | 37033 ft | 501 kts | 107° |
| 2026-05-06 19:28 | 28.86386 | -88.62601 | 37032 ft | 499 kts | 110° |
| 2026-05-06 19:29 | 28.84203 | -88.55093 | 37037 ft | 498 kts | 112° |
| 2026-05-06 19:29 | 28.82026 | -88.47644 | 37036 ft | 499 kts | 111° |
| 2026-05-06 19:30 | 28.79919 | -88.40102 | 37031 ft | 499 kts | 110° |
| 2026-05-06 19:30 | 28.77850 | -88.32547 | 37029 ft | 499 kts | 110° |
| 2026-05-06 19:31 | 28.75753 | -88.24995 | 37037 ft | 499 kts | 110° |
| 2026-05-06 19:31 | 28.72570 | -88.13691 | 37042 ft | 499 kts | 110° |
| 2026-05-06 19:32 | 28.70453 | -88.06155 | 37038 ft | 499 kts | 110° |
| 2026-05-06 19:32 | 28.68333 | -87.98622 | 37041 ft | 500 kts | 110° |
| 2026-05-06 19:33 | 28.66202 | -87.91084 | 37043 ft | 500 kts | 110° |
| 2026-05-06 19:33 | 28.64064 | -87.83560 | 37035 ft | 499 kts | 110° |
| 2026-05-06 19:34 | 28.61942 | -87.76094 | 37059 ft | 499 kts | 110° |
| 2026-05-06 19:34 | 28.59809 | -87.68590 | 37052 ft | 498 kts | 110° |
| 2026-05-06 19:35 | 28.57672 | -87.61093 | 37053 ft | 498 kts | 110° |
| 2026-05-06 19:35 | 28.55532 | -87.53597 | 37046 ft | 498 kts | 110° |
| 2026-05-06 19:36 | 28.53391 | -87.46101 | 37044 ft | 498 kts | 110° |
| 2026-05-06 19:36 | 28.51241 | -87.38618 | 37045 ft | 498 kts | 110° |
| 2026-05-06 19:37 | 28.49084 | -87.31138 | 37042 ft | 498 kts | 110° |
| 2026-05-06 19:37 | 28.47289 | -87.24918 | 37050 ft | 498 kts | 110° |
| 2026-05-06 19:38 | 28.44772 | -87.16217 | 37052 ft | 498 kts | 110° |
| 2026-05-06 19:38 | 28.42604 | -87.08743 | 37052 ft | 498 kts | 110° |
| 2026-05-06 19:39 | 28.40433 | -87.01273 | 37052 ft | 498 kts | 110° |
| 2026-05-06 19:39 | 28.38612 | -86.95012 | 37051 ft | 498 kts | 110° |
| 2026-05-06 19:40 | 28.36447 | -86.87585 | 37064 ft | 498 kts | 110° |
| 2026-05-06 19:40 | 28.34265 | -86.80133 | 37068 ft | 498 kts | 110° |
| 2026-05-06 19:41 | 28.32081 | -86.72683 | 37059 ft | 497 kts | 110° |
| 2026-05-06 19:41 | 28.29904 | -86.65248 | 37064 ft | 496 kts | 110° |
| 2026-05-06 19:42 | 28.27738 | -86.57824 | 37071 ft | 496 kts | 110° |
| 2026-05-06 19:42 | 28.25573 | -86.50400 | 37064 ft | 495 kts | 110° |
| 2026-05-06 19:43 | 28.23410 | -86.42989 | 37067 ft | 495 kts | 110° |
| 2026-05-06 19:43 | 28.21238 | -86.35587 | 37068 ft | 495 kts | 110° |
| 2026-05-06 19:44 | 28.19052 | -86.28191 | 37070 ft | 495 kts | 110° |
| 2026-05-06 19:44 | 28.16868 | -86.20795 | 37075 ft | 494 kts | 110° |
| 2026-05-06 19:45 | 28.14689 | -86.13404 | 37072 ft | 494 kts | 110° |
| 2026-05-06 19:45 | 28.12500 | -86.06033 | 37069 ft | 494 kts | 110° |
| 2026-05-06 19:46 | 28.10303 | -85.98663 | 37066 ft | 494 kts | 110° |
| 2026-05-06 19:46 | 28.08103 | -85.91288 | 37067 ft | 494 kts | 110° |
| 2026-05-06 19:47 | 28.05906 | -85.83915 | 37067 ft | 494 kts | 110° |
| 2026-05-06 19:47 | 28.03710 | -85.76550 | 37070 ft | 494 kts | 110° |
| 2026-05-06 19:48 | 28.01524 | -85.69230 | 37071 ft | 494 kts | 110° |
| 2026-05-06 19:48 | 27.99307 | -85.61862 | 37060 ft | 494 kts | 110° |
| 2026-05-06 19:49 | 27.97099 | -85.54512 | 37074 ft | 493 kts | 110° |
| 2026-05-06 19:49 | 27.94882 | -85.47170 | 37082 ft | 493 kts | 110° |
| 2026-05-06 19:50 | 27.92662 | -85.39838 | 37083 ft | 493 kts | 110° |
| 2026-05-06 19:50 | 27.90444 | -85.32514 | 37081 ft | 493 kts | 110° |
| 2026-05-06 19:51 | 27.88328 | -85.25148 | 37081 ft | 493 kts | 103° |
| 2026-05-06 19:51 | 27.87029 | -85.17544 | 37078 ft | 493 kts | 101° |
| 2026-05-06 19:52 | 27.85749 | -85.09943 | 37078 ft | 492 kts | 101° |
| 2026-05-06 19:52 | 27.84463 | -85.02339 | 37078 ft | 493 kts | 101° |
| 2026-05-06 19:53 | 27.83181 | -84.94728 | 37080 ft | 493 kts | 101° |
| 2026-05-06 19:53 | 27.81892 | -84.87108 | 37075 ft | 493 kts | 101° |
| 2026-05-06 19:54 | 27.81408 | -84.79416 | 37069 ft | 491 kts | 85° |
| 2026-05-06 19:54 | 27.81798 | -84.71766 | 37068 ft | 491 kts | 85° |
| 2026-05-06 19:55 | 27.82173 | -84.64051 | 37070 ft | 492 kts | 85° |
| 2026-05-06 19:55 | 27.82535 | -84.56343 | 37071 ft | 492 kts | 85° |
| 2026-05-06 19:56 | 27.82883 | -84.48617 | 37070 ft | 492 kts | 85° |
| 2026-05-06 19:56 | 27.83234 | -84.40906 | 37071 ft | 492 kts | 85° |
| 2026-05-06 19:57 | 27.83590 | -84.33186 | 37075 ft | 491 kts | 85° |
| 2026-05-06 19:57 | 27.83942 | -84.25474 | 37075 ft | 491 kts | 85° |
| 2026-05-06 19:58 | 27.84292 | -84.17819 | 37065 ft | 491 kts | 85° |
| 2026-05-06 19:58 | 27.84632 | -84.10108 | 37064 ft | 491 kts | 85° |
| 2026-05-06 19:59 | 27.84971 | -84.02390 | 36663 ft | 493 kts | 85° |
| 2026-05-06 19:59 | 27.85135 | -83.98522 | 36077 ft | 492 kts | 85° |
| 2026-05-06 19:59 | 27.85296 | -83.94678 | 35552 ft | 489 kts | 85° |
| 2026-05-06 20:00 | 27.85456 | -83.90852 | 35056 ft | 486 kts | 85° |
| 2026-05-06 20:00 | 27.85615 | -83.87044 | 34574 ft | 483 kts | 85° |
| 2026-05-06 20:00 | 27.85773 | -83.83262 | 34109 ft | 480 kts | 85° |
| 2026-05-06 20:00 | 27.85932 | -83.79503 | 33591 ft | 477 kts | 85° |
| 2026-05-06 20:01 | 27.86087 | -83.75774 | 33120 ft | 474 kts | 85° |
| 2026-05-06 20:01 | 27.86239 | -83.72068 | 32661 ft | 470 kts | 85° |
| 2026-05-06 20:01 | 27.86391 | -83.68397 | 32212 ft | 466 kts | 85° |
| 2026-05-06 20:01 | 27.86537 | -83.64752 | 31763 ft | 462 kts | 85° |
| 2026-05-06 20:02 | 27.86682 | -83.61133 | 31337 ft | 459 kts | 85° |
| 2026-05-06 20:02 | 27.86828 | -83.57550 | 30915 ft | 455 kts | 85° |
| 2026-05-06 20:02 | 27.86970 | -83.53987 | 30498 ft | 452 kts | 85° |
| 2026-05-06 20:02 | 27.87107 | -83.50451 | 30087 ft | 449 kts | 85° |
| 2026-05-06 20:03 | 27.87240 | -83.46943 | 29616 ft | 445 kts | 85° |
| 2026-05-06 20:03 | 27.87374 | -83.43455 | 29155 ft | 442 kts | 85° |
| 2026-05-06 20:03 | 27.87507 | -83.39999 | 28713 ft | 439 kts | 85° |
| 2026-05-06 20:03 | 27.87642 | -83.36571 | 28279 ft | 435 kts | 85° |
| 2026-05-06 20:04 | 27.87775 | -83.33160 | 27843 ft | 432 kts | 85° |
| 2026-05-06 20:04 | 27.87904 | -83.29778 | 27420 ft | 429 kts | 85° |
| 2026-05-06 20:04 | 27.88031 | -83.26418 | 26997 ft | 426 kts | 86° |
| 2026-05-06 20:04 | 27.88113 | -83.23082 | 26579 ft | 424 kts | 87° |
| 2026-05-06 20:05 | 27.88136 | -83.19772 | 26016 ft | 418 kts | 88° |
| 2026-05-06 20:05 | 27.88123 | -83.16505 | 25302 ft | 413 kts | 89° |
| 2026-05-06 20:05 | 27.88097 | -83.13316 | 24618 ft | 409 kts | 88° |
| 2026-05-06 20:05 | 27.88070 | -83.10124 | 23945 ft | 404 kts | 88° |
| 2026-05-06 20:06 | 27.88055 | -83.06957 | 23222 ft | 400 kts | 88° |
| 2026-05-06 20:06 | 27.88052 | -83.03836 | 22511 ft | 394 kts | 88° |
| 2026-05-06 20:06 | 27.88054 | -83.00772 | 21839 ft | 387 kts | 88° |
| 2026-05-06 20:06 | 27.88057 | -82.97754 | 21204 ft | 381 kts | 88° |
| 2026-05-06 20:07 | 27.88062 | -82.94788 | 20576 ft | 374 kts | 88° |
| 2026-05-06 20:07 | 27.88068 | -82.91870 | 19972 ft | 368 kts | 88° |
| 2026-05-06 20:07 | 27.88070 | -82.89003 | 19384 ft | 362 kts | 88° |
| 2026-05-06 20:07 | 27.88071 | -82.86177 | 18805 ft | 356 kts | 88° |
| 2026-05-06 20:08 | 27.88074 | -82.83394 | 18228 ft | 351 kts | 89° |
| 2026-05-06 20:08 | 27.88075 | -82.80662 | 17591 ft | 346 kts | 89° |
| 2026-05-06 20:08 | 27.88073 | -82.77960 | 16953 ft | 341 kts | 88° |
| 2026-05-06 20:08 | 27.88072 | -82.75296 | 16325 ft | 337 kts | 88° |
| 2026-05-06 20:09 | 27.88069 | -82.72647 | 15937 ft | 335 kts | 88° |
| 2026-05-06 20:09 | 27.88064 | -82.70028 | 15627 ft | 332 kts | 88° |
| 2026-05-06 20:09 | 27.88057 | -82.67419 | 15332 ft | 330 kts | 88° |
| 2026-05-06 20:09 | 27.88037 | -82.64834 | 15036 ft | 328 kts | 89° |
| 2026-05-06 20:10 | 27.88003 | -82.62268 | 14733 ft | 325 kts | 89° |
| 2026-05-06 20:10 | 27.87962 | -82.59718 | 14417 ft | 323 kts | 89° |
| 2026-05-06 20:10 | 27.87919 | -82.57221 | 14127 ft | 321 kts | 89° |
| 2026-05-06 20:10 | 27.87874 | -82.54709 | 13827 ft | 319 kts | 89° |
| 2026-05-06 20:11 | 27.87832 | -82.52210 | 13501 ft | 317 kts | 89° |
| 2026-05-06 20:11 | 27.87794 | -82.49723 | 13168 ft | 315 kts | 89° |
| 2026-05-06 20:11 | 27.87758 | -82.47253 | 12834 ft | 313 kts | 89° |
| 2026-05-06 20:11 | 27.87724 | -82.44796 | 12486 ft | 312 kts | 88° |
| 2026-05-06 20:12 | 27.87782 | -82.42363 | 12169 ft | 309 kts | 81° |
| 2026-05-06 20:12 | 27.88212 | -82.39998 | 11930 ft | 306 kts | 71° |
| 2026-05-06 20:12 | 27.88993 | -82.37784 | 11699 ft | 303 kts | 63° |
| 2026-05-06 20:12 | 27.89868 | -82.35622 | 11452 ft | 301 kts | 64° |
| 2026-05-06 20:13 | 27.90732 | -82.33473 | 11216 ft | 300 kts | 64° |
| 2026-05-06 20:13 | 27.91592 | -82.31323 | 10979 ft | 299 kts | 64° |
| 2026-05-06 20:13 | 27.92448 | -82.29186 | 10747 ft | 298 kts | 64° |
| 2026-05-06 20:13 | 27.93302 | -82.27056 | 10510 ft | 297 kts | 64° |
| 2026-05-06 20:14 | 27.94153 | -82.24934 | 10288 ft | 296 kts | 64° |
| 2026-05-06 20:14 | 27.95000 | -82.22821 | 10059 ft | 294 kts | 64° |
| 2026-05-06 20:14 | 27.95843 | -82.20720 | 9869 ft | 293 kts | 64° |
| 2026-05-06 20:14 | 27.96682 | -82.18624 | 9736 ft | 292 kts | 65° |
| 2026-05-06 20:15 | 27.97520 | -82.16528 | 9608 ft | 292 kts | 65° |
| 2026-05-06 20:15 | 27.98357 | -82.14436 | 9479 ft | 291 kts | 64° |
| 2026-05-06 20:15 | 27.99192 | -82.12351 | 9350 ft | 290 kts | 65° |
| 2026-05-06 20:15 | 28.00019 | -82.10277 | 9223 ft | 290 kts | 65° |
| 2026-05-06 20:16 | 28.00846 | -82.08205 | 9092 ft | 289 kts | 65° |
| 2026-05-06 20:16 | 28.01672 | -82.06136 | 8965 ft | 288 kts | 65° |
| 2026-05-06 20:16 | 28.02493 | -82.04072 | 8835 ft | 287 kts | 65° |
| 2026-05-06 20:16 | 28.03309 | -82.02015 | 8717 ft | 286 kts | 65° |
| 2026-05-06 20:17 | 28.04130 | -81.99958 | 8589 ft | 286 kts | 65° |
| 2026-05-06 20:17 | 28.04947 | -81.97912 | 8465 ft | 285 kts | 65° |
| 2026-05-06 20:17 | 28.05763 | -81.95872 | 8343 ft | 285 kts | 65° |
| 2026-05-06 20:17 | 28.06584 | -81.93834 | 8220 ft | 283 kts | 65° |
| 2026-05-06 20:18 | 28.07401 | -81.91812 | 8099 ft | 283 kts | 65° |
| 2026-05-06 20:18 | 28.08225 | -81.89786 | 7990 ft | 282 kts | 65° |
| 2026-05-06 20:18 | 28.09040 | -81.87803 | 7867 ft | 281 kts | 64° |
| 2026-05-06 20:18 | 28.09917 | -81.85825 | 7746 ft | 281 kts | 62° |
| 2026-05-06 20:19 | 28.10828 | -81.83870 | 7628 ft | 280 kts | 62° |
| 2026-05-06 20:19 | 28.11748 | -81.81930 | 7508 ft | 279 kts | 62° |
| 2026-05-06 20:19 | 28.12670 | -81.79986 | 7392 ft | 279 kts | 62° |
| 2026-05-06 20:19 | 28.13589 | -81.78044 | 7274 ft | 280 kts | 62° |
| 2026-05-06 20:20 | 28.14510 | -81.76097 | 7159 ft | 280 kts | 62° |
| 2026-05-06 20:20 | 28.15425 | -81.74148 | 7042 ft | 279 kts | 62° |
| 2026-05-06 20:20 | 28.16334 | -81.72199 | 6922 ft | 279 kts | 62° |
| 2026-05-06 20:20 | 28.17239 | -81.70254 | 6804 ft | 279 kts | 62° |
| 2026-05-06 20:21 | 28.18143 | -81.68316 | 6686 ft | 278 kts | 62° |
| 2026-05-06 20:21 | 28.19048 | -81.66379 | 6568 ft | 278 kts | 62° |
| 2026-05-06 20:21 | 28.19950 | -81.64447 | 6461 ft | 277 kts | 62° |
| 2026-05-06 20:21 | 28.20837 | -81.62542 | 6338 ft | 277 kts | 62° |
| 2026-05-06 20:22 | 28.21744 | -81.60587 | 6210 ft | 277 kts | 62° |
| 2026-05-06 20:22 | 28.22631 | -81.58679 | 6089 ft | 276 kts | 62° |
| 2026-05-06 20:22 | 28.23527 | -81.56752 | 5966 ft | 276 kts | 62° |
| 2026-05-06 20:22 | 28.24423 | -81.54827 | 5839 ft | 276 kts | 62° |
| 2026-05-06 20:23 | 28.25434 | -81.52974 | 5722 ft | 276 kts | 54° |
| 2026-05-06 20:23 | 28.26573 | -81.51221 | 5596 ft | 276 kts | 54° |
| 2026-05-06 20:23 | 28.27712 | -81.49463 | 5473 ft | 276 kts | 54° |
| 2026-05-06 20:23 | 28.28846 | -81.47709 | 5352 ft | 276 kts | 55° |
| 2026-05-06 20:24 | 28.29981 | -81.45952 | 5226 ft | 276 kts | 54° |
| 2026-05-06 20:24 | 28.31227 | -81.44300 | 5107 ft | 277 kts | 42° |
| 2026-05-06 20:24 | 28.32811 | -81.43108 | 4988 ft | 275 kts | 25° |
| 2026-05-06 20:24 | 28.34599 | -81.42503 | 4863 ft | 263 kts | 8° |
| 2026-05-06 20:25 | 28.36383 | -81.42425 | 4737 ft | 251 kts | 360° |
| 2026-05-06 20:25 | 28.38115 | -81.42429 | 4611 ft | 247 kts | 0° |
| 2026-05-06 20:25 | 28.39824 | -81.42427 | 4480 ft | 246 kts | 360° |
| 2026-05-06 20:25 | 28.41538 | -81.42426 | 4356 ft | 246 kts | 0° |
| 2026-05-06 20:26 | 28.43241 | -81.42424 | 4232 ft | 245 kts | 360° |
| 2026-05-06 20:26 | 28.44949 | -81.42421 | 4109 ft | 245 kts | 0° |
| 2026-05-06 20:26 | 28.46654 | -81.42416 | 3985 ft | 245 kts | 0° |
| 2026-05-06 20:26 | 28.48353 | -81.42410 | 3862 ft | 244 kts | 0° |
| 2026-05-06 20:27 | 28.50056 | -81.42405 | 3731 ft | 244 kts | 360° |
| 2026-05-06 20:27 | 28.51178 | -81.42405 | 3663 ft | 243 kts | 360° |
| 2026-05-06 20:27 | 28.52864 | -81.42408 | 3532 ft | 242 kts | 360° |
| 2026-05-06 20:27 | 28.54554 | -81.42408 | 3410 ft | 243 kts | 0° |
| 2026-05-06 20:28 | 28.56219 | -81.42398 | 3288 ft | 235 kts | 0° |
| 2026-05-06 20:28 | 28.57836 | -81.42389 | 3165 ft | 233 kts | 360° |
| 2026-05-06 20:28 | 28.59454 | -81.42390 | 3040 ft | 232 kts | 360° |
| 2026-05-06 20:28 | 28.61072 | -81.42403 | 2925 ft | 231 kts | 359° |
| 2026-05-06 20:29 | 28.62676 | -81.42389 | 2798 ft | 230 kts | 8° |
| 2026-05-06 20:29 | 28.64158 | -81.41780 | 2680 ft | 225 kts | 37° |
| 2026-05-06 20:29 | 28.65182 | -81.40534 | 2614 ft | 211 kts | 63° |
| 2026-05-06 20:29 | 28.65602 | -81.38987 | 2476 ft | 203 kts | 88° |
| 2026-05-06 20:30 | 28.65417 | -81.37428 | 2349 ft | 199 kts | 112° |
| 2026-05-06 20:30 | 28.63674 | -81.35101 | 2098 ft | 195 kts | 140° |
| 2026-05-06 20:30 | 28.62636 | -81.34099 | 1983 ft | 195 kts | 140° |
| 2026-05-06 20:31 | 28.61605 | -81.33100 | 1860 ft | 194 kts | 141° |
| 2026-05-06 20:31 | 28.60589 | -81.32113 | 1746 ft | 189 kts | 140° |
| 2026-05-06 20:31 | 28.59631 | -81.31179 | 1637 ft | 174 kts | 141° |
| 2026-05-06 20:31 | 28.58724 | -81.30294 | 1523 ft | 170 kts | 141° |
| 2026-05-06 20:32 | 28.57830 | -81.29423 | 1403 ft | 168 kts | 141° |
| 2026-05-06 20:32 | 28.56865 | -81.28688 | 1277 ft | 168 kts | 156° |
| 2026-05-06 20:32 | 28.55741 | -81.28378 | 1153 ft | 166 kts | 176° |
| 2026-05-06 20:32 | 28.54578 | -81.28365 | 1041 ft | 167 kts | 179° |
| 2026-05-06 20:33 | 28.53423 | -81.28351 | 1041 ft | 166 kts | 179° |
| 2026-05-06 20:33 | 28.52257 | -81.28339 | 1043 ft | 169 kts | 178° |
| 2026-05-06 20:33 | 28.51089 | -81.28327 | 1040 ft | 166 kts | 179° |
| 2026-05-06 20:33 | 28.50017 | -81.28316 | 1025 ft | 147 kts | 179° |
| 2026-05-06 20:34 | 28.49011 | -81.28306 | 1024 ft | 142 kts | 179° |
| 2026-05-06 20:34 | 28.48042 | -81.28308 | 856 ft | 140 kts | 179° |
| 2026-05-06 20:34 | 28.47076 | -81.28306 | 712 ft | 138 kts | 179° |
| 2026-05-06 20:34 | 28.46127 | -81.28272 | 514 ft | 134 kts | 177° |
| 2026-05-06 20:35 | 28.45242 | -81.28267 | 326 ft | 135 kts | 179° |
| 2026-05-06 20:35 | 28.44370 | -81.28257 | 148 ft | 134 kts | 178° |
| 2026-05-06 20:35 | 28.43520 | -81.28246 | 108 ft | 132 kts | 179° |
| 2026-05-06 20:35 | 28.42790 | -81.28239 | 97 ft | 85 kts | 179° |
| 2026-05-06 20:36 | 28.42564 | -81.28256 | 98 ft | 5 kts | 238° |
| 2026-05-06 20:36 | 28.42551 | -81.28283 | 99 ft | 4 kts | 240° |
| 2026-05-06 20:36 | 28.42535 | -81.28317 | 97 ft | 6 kts | 244° |
| 2026-05-06 20:36 | 28.42519 | -81.28363 | 99 ft | 7 kts | 249° |
| 2026-05-06 20:37 | 28.42502 | -81.28418 | 97 ft | 7 kts | 252° |
| 2026-05-06 20:37 | 28.42475 | -81.28505 | 98 ft | 18 kts | 250° |
| 2026-05-06 20:37 | 28.42422 | -81.28677 | 99 ft | 27 kts | 251° |
| 2026-05-06 20:37 | 28.42364 | -81.28861 | 105 ft | 25 kts | 252° |
| 2026-05-06 20:38 | 28.42306 | -81.29063 | 95 ft | 27 kts | 252° |
| 2026-05-06 20:38 | 28.42285 | -81.29285 | 94 ft | 29 kts | 269° |
| 2026-05-06 20:38 | 28.42281 | -81.29520 | 96 ft | 30 kts | 269° |
| 2026-05-06 20:38 | 28.42281 | -81.29712 | 94 ft | 15 kts | 267° |
| 2026-05-06 20:39 | 28.42332 | -81.29793 | 95 ft | 13 kts | 348° |
| 2026-05-06 20:39 | 28.42418 | -81.29795 | 96 ft | 12 kts | 359° |
| 2026-05-06 20:39 | 28.42547 | -81.29796 | 96 ft | 27 kts | 359° |
| 2026-05-06 20:39 | 28.42745 | -81.29798 | 95 ft | 39 kts | 359° |
| 2026-05-06 20:40 | 28.43031 | -81.29802 | 95 ft | 34 kts | 359° |
| 2026-05-06 20:40 | 28.43277 | -81.29803 | 95 ft | 36 kts | 359° |
| 2026-05-06 20:40 | 28.43506 | -81.29806 | 95 ft | 32 kts | 360° |
| 2026-05-06 20:40 | 28.43733 | -81.29814 | 96 ft | 33 kts | 348° |
| 2026-05-06 20:41 | 28.43890 | -81.29986 | 99 ft | 33 kts | 287° |
| 2026-05-06 20:41 | 28.43906 | -81.30215 | 102 ft | 28 kts | 272° |
| 2026-05-06 20:41 | 28.43916 | -81.30440 | 106 ft | 27 kts | 272° |
| 2026-05-06 20:41 | 28.43927 | -81.30632 | 106 ft | 25 kts | 274° |
| 2026-05-06 20:42 | 28.43940 | -81.30827 | 110 ft | 25 kts | 273° |
| 2026-05-06 20:42 | 28.43942 | -81.31041 | 107 ft | 28 kts | 269° |
| 2026-05-06 20:42 | 28.43932 | -81.31268 | 107 ft | 28 kts | 267° |
| 2026-05-06 20:42 | 28.43910 | -81.31446 | 103 ft | 21 kts | 231° |
| 2026-05-06 20:43 | 28.43787 | -81.31446 | 102 ft | 20 kts | 155° |
| 2026-05-06 20:43 | 28.43667 | -81.31391 | 96 ft | 20 kts | 166° |
| 2026-05-06 20:43 | 28.43605 | -81.31423 | 96 ft | 9 kts | 231° |
| 2026-05-06 20:43 | 28.43596 | -81.31436 | 95 ft | 0 kts | 231° |